sensor_id;sensor_type;location;lat;lon;timestamp;temperature;humidity
6008;DHT22;3032;49.484;11.112;2023-03-26T00:00:37;9.60;99.90
6008;DHT22;3032;49.484;11.112;2023-03-26T00:03:05;9.60;99.90
6008;DHT22;3032;49.484;11.112;2023-03-26T00:05:30;9.40;99.90
6008;DHT22;3032;49.484;11.112;2023-03-26T00:07:57;9.50;99.90
6008;DHT22;3032;49.484;11.112;2023-03-26T00:10:22;9.30;99.90
6008;DHT22;3032;49.484;11.112;2023-03-26T00:12:49;9.30;99.90
6008;DHT22;3032;49.484;11.112;2023-03-26T00:15:15;9.40;99.90
6008;DHT22;3032;49.484;11.112;2023-03-26T00:17:41;9.30;99.90
6008;DHT22;3032;49.484;11.112;2023-03-26T00:20:07;9.30;99.90
6008;DHT22;3032;49.484;11.112;2023-03-26T00:22:33;9.20;99.90
6008;DHT22;3032;49.484;11.112;2023-03-26T00:24:59;9.20;99.90
6008;DHT22;3032;49.484;11.112;2023-03-26T00:27:25;9.10;99.90
6008;DHT22;3032;49.484;11.112;2023-03-26T00:29:51;9.10;99.90
6008;DHT22;3032;49.484;11.112;2023-03-26T00:32:20;9.10;99.90
6008;DHT22;3032;49.484;11.112;2023-03-26T00:34:46;9.20;99.90
6008;DHT22;3032;49.484;11.112;2023-03-26T00:37:12;9.00;99.90
6008;DHT22;3032;49.484;11.112;2023-03-26T00:39:39;9.00;99.90
6008;DHT22;3032;49.484;11.112;2023-03-26T00:42:04;9.20;99.90
6008;DHT22;3032;49.484;11.112;2023-03-26T00:44:33;9.30;99.90
6008;DHT22;3032;49.484;11.112;2023-03-26T00:46:58;9.40;99.90
6008;DHT22;3032;49.484;11.112;2023-03-26T00:49:24;9.50;99.90
6008;DHT22;3032;49.484;11.112;2023-03-26T00:51:51;9.60;99.90
6008;DHT22;3032;49.484;11.112;2023-03-26T00:54:17;9.60;99.90
6008;DHT22;3032;49.484;11.112;2023-03-26T00:56:43;9.60;99.90
6008;DHT22;3032;49.484;11.112;2023-03-26T00:59:09;9.50;99.90
6008;DHT22;3032;49.484;11.112;2023-03-26T01:01:35;10.00;99.90
6008;DHT22;3032;49.484;11.112;2023-03-26T01:06:45;9.50;99.90
6008;DHT22;3032;49.484;11.112;2023-03-26T01:09:17;9.60;99.90
6008;DHT22;3032;49.484;11.112;2023-03-26T01:11:43;9.70;99.90
6008;DHT22;3032;49.484;11.112;2023-03-26T01:14:12;9.60;99.90
6008;DHT22;3032;49.484;11.112;2023-03-26T01:22:06;9.50;99.90
6008;DHT22;3032;49.484;11.112;2023-03-26T01:24:35;9.50;99.90
6008;DHT22;3032;49.484;11.112;2023-03-26T01:33:09;9.30;99.90
6008;DHT22;3032;49.484;11.112;2023-03-26T01:36:08;9.20;99.90
6008;DHT22;3032;49.484;11.112;2023-03-26T01:38:58;9.00;99.90
6008;DHT22;3032;49.484;11.112;2023-03-26T01:47:00;9.30;99.90
6008;DHT22;3032;49.484;11.112;2023-03-26T01:49:28;9.10;99.90
6008;DHT22;3032;49.484;11.112;2023-03-26T01:51:55;9.00;99.90
6008;DHT22;3032;49.484;11.112;2023-03-26T01:54:25;8.90;99.90
6008;DHT22;3032;49.484;11.112;2023-03-26T02:02:40;8.90;99.90
6008;DHT22;3032;49.484;11.112;2023-03-26T02:05:24;9.10;99.90
6008;DHT22;3032;49.484;11.112;2023-03-26T02:08:10;8.90;99.90
6008;DHT22;3032;49.484;11.112;2023-03-26T02:10:43;8.90;99.90
6008;DHT22;3032;49.484;11.112;2023-03-26T02:13:11;8.80;99.90
6008;DHT22;3032;49.484;11.112;2023-03-26T02:15:38;8.80;99.90
6008;DHT22;3032;49.484;11.112;2023-03-26T02:18:03;8.70;99.90
6008;DHT22;3032;49.484;11.112;2023-03-26T02:20:29;8.90;99.90
6008;DHT22;3032;49.484;11.112;2023-03-26T02:22:58;9.00;99.90
6008;DHT22;3032;49.484;11.112;2023-03-26T02:25:24;9.20;99.90
6008;DHT22;3032;49.484;11.112;2023-03-26T02:27:51;9.10;99.90
6008;DHT22;3032;49.484;11.112;2023-03-26T02:30:24;9.20;99.90
6008;DHT22;3032;49.484;11.112;2023-03-26T02:32:53;9.30;99.90
6008;DHT22;3032;49.484;11.112;2023-03-26T02:35:20;9.30;99.90
6008;DHT22;3032;49.484;11.112;2023-03-26T02:37:47;9.20;99.90
6008;DHT22;3032;49.484;11.112;2023-03-26T02:40:18;9.20;99.90
6008;DHT22;3032;49.484;11.112;2023-03-26T02:42:46;9.30;99.90
6008;DHT22;3032;49.484;11.112;2023-03-26T02:45:14;9.40;99.90
6008;DHT22;3032;49.484;11.112;2023-03-26T02:47:39;9.50;99.90
6008;DHT22;3032;49.484;11.112;2023-03-26T02:50:05;9.20;99.90
6008;DHT22;3032;49.484;11.112;2023-03-26T02:52:33;9.60;99.90
6008;DHT22;3032;49.484;11.112;2023-03-26T02:55:00;9.70;99.90
6008;DHT22;3032;49.484;11.112;2023-03-26T02:57:25;9.50;99.90
6008;DHT22;3032;49.484;11.112;2023-03-26T02:59:51;9.20;99.90
6008;DHT22;3032;49.484;11.112;2023-03-26T03:02:17;9.00;99.90
6008;DHT22;3032;49.484;11.112;2023-03-26T03:04:44;8.90;99.90
6008;DHT22;3032;49.484;11.112;2023-03-26T03:07:09;8.70;99.90
6008;DHT22;3032;49.484;11.112;2023-03-26T03:09:39;8.70;99.90
6008;DHT22;3032;49.484;11.112;2023-03-26T03:12:04;8.50;99.90
6008;DHT22;3032;49.484;11.112;2023-03-26T03:14:30;8.30;99.90
6008;DHT22;3032;49.484;11.112;2023-03-26T03:16:55;8.30;99.90
6008;DHT22;3032;49.484;11.112;2023-03-26T03:19:22;8.10;99.90
6008;DHT22;3032;49.484;11.112;2023-03-26T03:21:47;8.10;99.90
6008;DHT22;3032;49.484;11.112;2023-03-26T03:24:13;8.10;99.90
6008;DHT22;3032;49.484;11.112;2023-03-26T03:26:42;8.20;99.90
6008;DHT22;3032;49.484;11.112;2023-03-26T03:29:10;8.30;99.90
6008;DHT22;3032;49.484;11.112;2023-03-26T03:31:36;8.20;99.90
6008;DHT22;3032;49.484;11.112;2023-03-26T03:34:02;8.20;99.90
6008;DHT22;3032;49.484;11.112;2023-03-26T03:36:27;8.10;99.90
6008;DHT22;3032;49.484;11.112;2023-03-26T03:38:54;8.00;99.90
6008;DHT22;3032;49.484;11.112;2023-03-26T03:41:20;8.10;99.90
6008;DHT22;3032;49.484;11.112;2023-03-26T03:43:45;8.10;99.90
6008;DHT22;3032;49.484;11.112;2023-03-26T03:46:11;8.10;99.90
6008;DHT22;3032;49.484;11.112;2023-03-26T03:48:36;8.20;99.90
6008;DHT22;3032;49.484;11.112;2023-03-26T03:51:04;8.20;99.90
6008;DHT22;3032;49.484;11.112;2023-03-26T03:53:30;8.30;99.90
6008;DHT22;3032;49.484;11.112;2023-03-26T03:55:56;8.40;99.90
6008;DHT22;3032;49.484;11.112;2023-03-26T03:58:23;8.50;99.90
6008;DHT22;3032;49.484;11.112;2023-03-26T04:00:50;8.60;99.90
6008;DHT22;3032;49.484;11.112;2023-03-26T04:03:16;8.60;99.90
6008;DHT22;3032;49.484;11.112;2023-03-26T04:05:43;8.80;99.90
6008;DHT22;3032;49.484;11.112;2023-03-26T04:08:17;9.00;99.90
6008;DHT22;3032;49.484;11.112;2023-03-26T04:10:43;8.90;99.90
6008;DHT22;3032;49.484;11.112;2023-03-26T04:13:11;8.70;99.90
6008;DHT22;3032;49.484;11.112;2023-03-26T04:15:37;8.60;99.90
6008;DHT22;3032;49.484;11.112;2023-03-26T04:18:03;8.40;99.90
6008;DHT22;3032;49.484;11.112;2023-03-26T04:20:28;8.40;99.90
6008;DHT22;3032;49.484;11.112;2023-03-26T04:22:54;8.40;99.90
6008;DHT22;3032;49.484;11.112;2023-03-26T04:25:20;8.20;99.90
6008;DHT22;3032;49.484;11.112;2023-03-26T04:27:46;8.10;99.90
6008;DHT22;3032;49.484;11.112;2023-03-26T04:30:16;8.10;99.90
6008;DHT22;3032;49.484;11.112;2023-03-26T04:32:45;8.00;99.90
6008;DHT22;3032;49.484;11.112;2023-03-26T04:35:13;8.10;99.90
6008;DHT22;3032;49.484;11.112;2023-03-26T04:37:42;8.20;99.90
6008;DHT22;3032;49.484;11.112;2023-03-26T04:40:20;8.10;99.90
6008;DHT22;3032;49.484;11.112;2023-03-26T04:42:46;8.20;99.90
6008;DHT22;3032;49.484;11.112;2023-03-26T04:45:14;8.10;99.90
6008;DHT22;3032;49.484;11.112;2023-03-26T04:47:40;8.10;99.90
6008;DHT22;3032;49.484;11.112;2023-03-26T04:50:07;8.20;99.90
6008;DHT22;3032;49.484;11.112;2023-03-26T04:52:33;8.30;99.90
6008;DHT22;3032;49.484;11.112;2023-03-26T04:55:00;8.40;99.90
6008;DHT22;3032;49.484;11.112;2023-03-26T04:57:37;8.50;99.90
6008;DHT22;3032;49.484;11.112;2023-03-26T05:00:05;8.50;99.90
6008;DHT22;3032;49.484;11.112;2023-03-26T05:02:39;8.50;99.90
6008;DHT22;3032;49.484;11.112;2023-03-26T05:05:06;8.60;99.90
6008;DHT22;3032;49.484;11.112;2023-03-26T05:07:32;8.70;99.90
6008;DHT22;3032;49.484;11.112;2023-03-26T05:09:58;8.80;99.90
6008;DHT22;3032;49.484;11.112;2023-03-26T05:12:23;8.80;99.90
6008;DHT22;3032;49.484;11.112;2023-03-26T05:14:49;9.00;99.90
6008;DHT22;3032;49.484;11.112;2023-03-26T05:17:15;9.10;99.90
6008;DHT22;3032;49.484;11.112;2023-03-26T05:19:43;9.30;99.90
6008;DHT22;3032;49.484;11.112;2023-03-26T05:22:09;9.40;99.90
6008;DHT22;3032;49.484;11.112;2023-03-26T05:24:34;9.50;99.90
6008;DHT22;3032;49.484;11.112;2023-03-26T05:27:00;9.50;99.90
6008;DHT22;3032;49.484;11.112;2023-03-26T05:29:25;9.40;99.90
6008;DHT22;3032;49.484;11.112;2023-03-26T05:31:51;9.50;99.90
6008;DHT22;3032;49.484;11.112;2023-03-26T05:34:18;9.30;99.90
6008;DHT22;3032;49.484;11.112;2023-03-26T05:36:45;9.50;99.90
6008;DHT22;3032;49.484;11.112;2023-03-26T05:39:10;9.60;99.90
6008;DHT22;3032;49.484;11.112;2023-03-26T05:41:38;9.70;99.90
6008;DHT22;3032;49.484;11.112;2023-03-26T05:44:04;9.90;99.90
6008;DHT22;3032;49.484;11.112;2023-03-26T05:46:29;10.10;99.90
6008;DHT22;3032;49.484;11.112;2023-03-26T05:48:55;10.30;99.90
6008;DHT22;3032;49.484;11.112;2023-03-26T05:51:20;10.30;99.90
6008;DHT22;3032;49.484;11.112;2023-03-26T05:53:48;10.20;99.90
6008;DHT22;3032;49.484;11.112;2023-03-26T05:56:13;10.20;99.90
6008;DHT22;3032;49.484;11.112;2023-03-26T05:58:39;10.30;99.90
6008;DHT22;3032;49.484;11.112;2023-03-26T06:01:08;10.60;99.90
6008;DHT22;3032;49.484;11.112;2023-03-26T06:03:38;10.70;99.90
6008;DHT22;3032;49.484;11.112;2023-03-26T06:06:10;10.90;99.90
6008;DHT22;3032;49.484;11.112;2023-03-26T06:08:40;11.00;99.90
6008;DHT22;3032;49.484;11.112;2023-03-26T06:11:06;10.90;99.90
6008;DHT22;3032;49.484;11.112;2023-03-26T06:13:32;10.50;99.90
6008;DHT22;3032;49.484;11.112;2023-03-26T06:15:58;10.50;99.90
6008;DHT22;3032;49.484;11.112;2023-03-26T06:18:24;10.60;99.90
6008;DHT22;3032;49.484;11.112;2023-03-26T06:20:50;10.70;99.90
6008;DHT22;3032;49.484;11.112;2023-03-26T06:23:17;11.10;99.90
6008;DHT22;3032;49.484;11.112;2023-03-26T06:25:43;11.20;99.90
6008;DHT22;3032;49.484;11.112;2023-03-26T06:28:10;10.50;99.90
6008;DHT22;3032;49.484;11.112;2023-03-26T06:30:36;10.30;99.90
6008;DHT22;3032;49.484;11.112;2023-03-26T06:33:02;9.80;99.90
6008;DHT22;3032;49.484;11.112;2023-03-26T06:35:28;9.40;99.90
6008;DHT22;3032;49.484;11.112;2023-03-26T06:37:55;9.40;99.90
6008;DHT22;3032;49.484;11.112;2023-03-26T06:40:20;9.40;99.90
6008;DHT22;3032;49.484;11.112;2023-03-26T06:42:46;9.50;99.90
6008;DHT22;3032;49.484;11.112;2023-03-26T06:45:11;9.30;99.90
6008;DHT22;3032;49.484;11.112;2023-03-26T06:47:37;9.30;99.90
6008;DHT22;3032;49.484;11.112;2023-03-26T06:50:03;9.20;99.90
6008;DHT22;3032;49.484;11.112;2023-03-26T06:52:30;9.20;99.90
6008;DHT22;3032;49.484;11.112;2023-03-26T06:54:56;10.20;99.90
6008;DHT22;3032;49.484;11.112;2023-03-26T06:57:21;10.20;99.90
6008;DHT22;3032;49.484;11.112;2023-03-26T06:59:47;10.50;99.90
6008;DHT22;3032;49.484;11.112;2023-03-26T07:02:13;10.30;99.90
6008;DHT22;3032;49.484;11.112;2023-03-26T07:04:38;10.10;99.90
6008;DHT22;3032;49.484;11.112;2023-03-26T07:07:04;9.90;99.90
6008;DHT22;3032;49.484;11.112;2023-03-26T07:09:30;9.50;99.90
6008;DHT22;3032;49.484;11.112;2023-03-26T07:11:56;9.30;99.90
6008;DHT22;3032;49.484;11.112;2023-03-26T07:14:22;9.10;99.90
6008;DHT22;3032;49.484;11.112;2023-03-26T07:16:56;8.90;99.90
6008;DHT22;3032;49.484;11.112;2023-03-26T07:19:21;9.20;99.90
6008;DHT22;3032;49.484;11.112;2023-03-26T07:21:47;9.30;99.90
6008;DHT22;3032;49.484;11.112;2023-03-26T07:24:13;9.00;99.90
6008;DHT22;3032;49.484;11.112;2023-03-26T07:29:36;9.20;99.90
6008;DHT22;3032;49.484;11.112;2023-03-26T07:32:29;9.30;99.90
6008;DHT22;3032;49.484;11.112;2023-03-26T07:43:22;9.40;99.90
6008;DHT22;3032;49.484;11.112;2023-03-26T07:45:50;9.10;99.90
6008;DHT22;3032;49.484;11.112;2023-03-26T07:48:30;9.40;99.90
6008;DHT22;3032;49.484;11.112;2023-03-26T07:51:05;9.50;99.90
6008;DHT22;3032;49.484;11.112;2023-03-26T07:53:31;9.60;99.90
6008;DHT22;3032;49.484;11.112;2023-03-26T08:07:27;9.10;99.90
6008;DHT22;3032;49.484;11.112;2023-03-26T08:10:15;9.00;99.90
6008;DHT22;3032;49.484;11.112;2023-03-26T08:12:59;9.10;99.90
6008;DHT22;3032;49.484;11.112;2023-03-26T08:15:31;9.10;99.90
6008;DHT22;3032;49.484;11.112;2023-03-26T08:18:37;9.00;99.90
6008;DHT22;3032;49.484;11.112;2023-03-26T08:21:19;8.90;99.90
6008;DHT22;3032;49.484;11.112;2023-03-26T08:24:06;9.00;99.90
6008;DHT22;3032;49.484;11.112;2023-03-26T08:26:35;8.80;99.90
6008;DHT22;3032;49.484;11.112;2023-03-26T08:29:13;8.70;99.90
6008;DHT22;3032;49.484;11.112;2023-03-26T08:31:42;8.60;99.90
6008;DHT22;3032;49.484;11.112;2023-03-26T08:34:10;8.50;99.90
6008;DHT22;3032;49.484;11.112;2023-03-26T08:36:36;8.50;99.90
6008;DHT22;3032;49.484;11.112;2023-03-26T08:39:03;8.50;99.90
6008;DHT22;3032;49.484;11.112;2023-03-26T08:44:50;9.10;99.90
6008;DHT22;3032;49.484;11.112;2023-03-26T08:58:30;8.60;99.90
6008;DHT22;3032;49.484;11.112;2023-03-26T09:01:26;8.40;99.90
6008;DHT22;3032;49.484;11.112;2023-03-26T09:06:49;8.40;99.90
6008;DHT22;3032;49.484;11.112;2023-03-26T09:10:02;8.30;99.90
6008;DHT22;3032;49.484;11.112;2023-03-26T09:26:34;8.20;99.90
6008;DHT22;3032;49.484;11.112;2023-03-26T09:34:59;8.60;99.90
6008;DHT22;3032;49.484;11.112;2023-03-26T09:40:19;8.60;99.90
6008;DHT22;3032;49.484;11.112;2023-03-26T09:54:09;8.00;99.90
6008;DHT22;3032;49.484;11.112;2023-03-26T10:02:11;8.00;99.90
6008;DHT22;3032;49.484;11.112;2023-03-26T10:07:58;7.80;99.90
6008;DHT22;3032;49.484;11.112;2023-03-26T10:16:25;7.90;99.90
6008;DHT22;3032;49.484;11.112;2023-03-26T10:22:11;8.30;99.90
6008;DHT22;3032;49.484;11.112;2023-03-26T10:25:04;8.40;99.90
6008;DHT22;3032;49.484;11.112;2023-03-26T10:36:17;8.10;99.90
6008;DHT22;3032;49.484;11.112;2023-03-26T10:42:03;8.80;99.90
6008;DHT22;3032;49.484;11.112;2023-03-26T10:53:02;8.70;99.90
6008;DHT22;3032;49.484;11.112;2023-03-26T10:55:40;8.50;99.90
6008;DHT22;3032;49.484;11.112;2023-03-26T10:58:20;8.70;99.90
6008;DHT22;3032;49.484;11.112;2023-03-26T11:09:15;8.40;99.90
6008;DHT22;3032;49.484;11.112;2023-03-26T11:21:07;8.20;99.90
6008;DHT22;3032;49.484;11.112;2023-03-26T11:26:13;8.40;99.90
6008;DHT22;3032;49.484;11.112;2023-03-26T11:33:55;8.30;99.90
6008;DHT22;3032;49.484;11.112;2023-03-26T11:36:38;8.30;99.90
6008;DHT22;3032;49.484;11.112;2023-03-26T11:39:09;8.20;99.90
6008;DHT22;3032;49.484;11.112;2023-03-26T11:41:38;8.00;99.90
6008;DHT22;3032;49.484;11.112;2023-03-26T11:44:28;8.10;99.90
6008;DHT22;3032;49.484;11.112;2023-03-26T11:46:59;8.50;99.90
6008;DHT22;3032;49.484;11.112;2023-03-26T11:49:28;8.10;99.90
6008;DHT22;3032;49.484;11.112;2023-03-26T11:51:54;8.10;99.90
6008;DHT22;3032;49.484;11.112;2023-03-26T11:54:19;8.40;99.90
6008;DHT22;3032;49.484;11.112;2023-03-26T11:56:52;8.40;99.90
6008;DHT22;3032;49.484;11.112;2023-03-26T11:59:25;8.70;99.90
6008;DHT22;3032;49.484;11.112;2023-03-26T12:04:49;8.50;99.90
6008;DHT22;3032;49.484;11.112;2023-03-26T12:07:41;8.90;99.90
6008;DHT22;3032;49.484;11.112;2023-03-26T12:10:23;9.10;99.90
6008;DHT22;3032;49.484;11.112;2023-03-26T12:12:52;9.20;99.90
6008;DHT22;3032;49.484;11.112;2023-03-26T12:15:19;9.30;99.90
6008;DHT22;3032;49.484;11.112;2023-03-26T12:17:55;9.70;99.90
6008;DHT22;3032;49.484;11.112;2023-03-26T12:22:54;9.20;99.90
6008;DHT22;3032;49.484;11.112;2023-03-26T12:25:34;9.40;99.90
6008;DHT22;3032;49.484;11.112;2023-03-26T12:30:30;9.80;99.90
6008;DHT22;3032;49.484;11.112;2023-03-26T12:33:00;10.70;99.90
6008;DHT22;3032;49.484;11.112;2023-03-26T12:35:29;11.60;99.90
6008;DHT22;3032;49.484;11.112;2023-03-26T12:41:06;13.40;99.90
6008;DHT22;3032;49.484;11.112;2023-03-26T12:43:52;14.40;99.90
6008;DHT22;3032;49.484;11.112;2023-03-26T12:46:34;15.00;99.90
6008;DHT22;3032;49.484;11.112;2023-03-26T12:49:03;15.00;99.90
6008;DHT22;3032;49.484;11.112;2023-03-26T13:02:42;15.30;99.90
6008;DHT22;3032;49.484;11.112;2023-03-26T13:05:35;15.60;99.90
6008;DHT22;3032;49.484;11.112;2023-03-26T13:10:47;15.70;99.90
6008;DHT22;3032;49.484;11.112;2023-03-26T13:16:01;15.50;99.90
6008;DHT22;3032;49.484;11.112;2023-03-26T13:21:53;15.30;99.90
6008;DHT22;3032;49.484;11.112;2023-03-26T13:24:44;15.80;99.90
6008;DHT22;3032;49.484;11.112;2023-03-26T13:27:21;15.70;99.90
6008;DHT22;3032;49.484;11.112;2023-03-26T13:32:48;14.90;99.90
6008;DHT22;3032;49.484;11.112;2023-03-26T13:43:46;16.70;99.90
6008;DHT22;3032;49.484;11.112;2023-03-26T13:46:43;16.80;99.90
6008;DHT22;3032;49.484;11.112;2023-03-26T13:49:14;16.40;99.90
6008;DHT22;3032;49.484;11.112;2023-03-26T13:51:59;15.80;99.90
6008;DHT22;3032;49.484;11.112;2023-03-26T13:54:55;15.00;99.90
6008;DHT22;3032;49.484;11.112;2023-03-26T13:57:31;14.60;99.90
6008;DHT22;3032;49.484;11.112;2023-03-26T14:00:16;14.50;99.90
6008;DHT22;3032;49.484;11.112;2023-03-26T14:02:52;14.60;99.90
6008;DHT22;3032;49.484;11.112;2023-03-26T14:05:25;14.70;99.90
6008;DHT22;3032;49.484;11.112;2023-03-26T14:08:02;14.70;99.90
6008;DHT22;3032;49.484;11.112;2023-03-26T14:10:32;14.40;99.90
6008;DHT22;3032;49.484;11.112;2023-03-26T14:19:57;11.80;99.90
6008;DHT22;3032;49.484;11.112;2023-03-26T14:23:06;12.40;99.90
6008;DHT22;3032;49.484;11.112;2023-03-26T14:26:06;12.80;99.90
6008;DHT22;3032;49.484;11.112;2023-03-26T14:34:35;13.30;99.90
6008;DHT22;3032;49.484;11.112;2023-03-26T14:48:29;15.90;99.90
6008;DHT22;3032;49.484;11.112;2023-03-26T14:54:08;16.10;99.90
6008;DHT22;3032;49.484;11.112;2023-03-26T15:05:57;16.20;99.90
6008;DHT22;3032;49.484;11.112;2023-03-26T15:14:35;15.60;99.90
6008;DHT22;3032;49.484;11.112;2023-03-26T15:17:16;15.40;99.90
6008;DHT22;3032;49.484;11.112;2023-03-26T15:31:30;14.70;99.90
6008;DHT22;3032;49.484;11.112;2023-03-26T15:34:26;14.60;99.90
6008;DHT22;3032;49.484;11.112;2023-03-26T15:37:23;14.70;99.90
6008;DHT22;3032;49.484;11.112;2023-03-26T15:51:06;14.70;99.90
6008;DHT22;3032;49.484;11.112;2023-03-26T15:53:54;14.80;99.90
6008;DHT22;3032;49.484;11.112;2023-03-26T16:02:14;15.00;99.70
6008;DHT22;3032;49.484;11.112;2023-03-26T16:04:55;14.80;98.20
6008;DHT22;3032;49.484;11.112;2023-03-26T16:10:19;15.10;96.10
6008;DHT22;3032;49.484;11.112;2023-03-26T16:15:39;14.70;94.50
6008;DHT22;3032;49.484;11.112;2023-03-26T16:18:20;14.50;94.40
6008;DHT22;3032;49.484;11.112;2023-03-26T16:20:53;14.10;92.70
6008;DHT22;3032;49.484;11.112;2023-03-26T16:31:29;13.40;94.20
6008;DHT22;3032;49.484;11.112;2023-03-26T16:36:42;13.00;95.00
6008;DHT22;3032;49.484;11.112;2023-03-26T16:44:25;13.20;94.70
6008;DHT22;3032;49.484;11.112;2023-03-26T16:52:28;12.90;95.40
6008;DHT22;3032;49.484;11.112;2023-03-26T16:55:05;12.80;96.10
6008;DHT22;3032;49.484;11.112;2023-03-26T16:58:02;12.80;96.20
6008;DHT22;3032;49.484;11.112;2023-03-26T17:00:45;12.80;96.00
6008;DHT22;3032;49.484;11.112;2023-03-26T17:03:26;13.10;96.10
6008;DHT22;3032;49.484;11.112;2023-03-26T17:18:51;13.40;96.70
6008;DHT22;3032;49.484;11.112;2023-03-26T17:29:49;13.60;95.90
6008;DHT22;3032;49.484;11.112;2023-03-26T17:32:17;13.50;96.00
6008;DHT22;3032;49.484;11.112;2023-03-26T17:34:58;13.30;96.20
6008;DHT22;3032;49.484;11.112;2023-03-26T17:37:40;13.20;96.60
6008;DHT22;3032;49.484;11.112;2023-03-26T17:40:29;13.00;97.20
6008;DHT22;3032;49.484;11.112;2023-03-26T17:43:08;12.70;97.90
6008;DHT22;3032;49.484;11.112;2023-03-26T17:45:38;12.70;97.90
6008;DHT22;3032;49.484;11.112;2023-03-26T17:50:37;13.10;98.40
6008;DHT22;3032;49.484;11.112;2023-03-26T17:53:22;13.10;98.50
6008;DHT22;3032;49.484;11.112;2023-03-26T17:55:50;13.20;97.90
6008;DHT22;3032;49.484;11.112;2023-03-26T17:58:27;13.30;98.20
6008;DHT22;3032;49.484;11.112;2023-03-26T18:04:10;13.50;98.40
6008;DHT22;3032;49.484;11.112;2023-03-26T18:09:23;13.10;98.60
6008;DHT22;3032;49.484;11.112;2023-03-26T18:17:44;12.10;99.90
6008;DHT22;3032;49.484;11.112;2023-03-26T18:20:25;11.80;99.90
6008;DHT22;3032;49.484;11.112;2023-03-26T18:22:52;11.60;99.90
6008;DHT22;3032;49.484;11.112;2023-03-26T18:25:25;11.70;99.90
6008;DHT22;3032;49.484;11.112;2023-03-26T18:27:53;11.60;99.90
6008;DHT22;3032;49.484;11.112;2023-03-26T18:30:23;11.40;99.90
6008;DHT22;3032;49.484;11.112;2023-03-26T18:33:02;11.30;99.90
6008;DHT22;3032;49.484;11.112;2023-03-26T18:35:50;10.90;99.90
6008;DHT22;3032;49.484;11.112;2023-03-26T18:38:19;10.60;99.90
6008;DHT22;3032;49.484;11.112;2023-03-26T18:40:46;10.70;99.90
6008;DHT22;3032;49.484;11.112;2023-03-26T18:43:14;10.40;99.90
6008;DHT22;3032;49.484;11.112;2023-03-26T18:45:41;10.50;99.90
6008;DHT22;3032;49.484;11.112;2023-03-26T18:48:21;10.50;99.90
6008;DHT22;3032;49.484;11.112;2023-03-26T18:50:52;10.30;99.90
6008;DHT22;3032;49.484;11.112;2023-03-26T18:53:21;10.10;99.90
6008;DHT22;3032;49.484;11.112;2023-03-26T18:55:48;10.20;99.90
6008;DHT22;3032;49.484;11.112;2023-03-26T18:58:27;10.20;99.90
6008;DHT22;3032;49.484;11.112;2023-03-26T19:00:57;9.80;99.90
6008;DHT22;3032;49.484;11.112;2023-03-26T19:03:23;9.70;99.90
6008;DHT22;3032;49.484;11.112;2023-03-26T19:05:51;9.70;99.90
6008;DHT22;3032;49.484;11.112;2023-03-26T19:08:18;9.70;99.90
6008;DHT22;3032;49.484;11.112;2023-03-26T19:10:45;9.70;99.90
6008;DHT22;3032;49.484;11.112;2023-03-26T19:13:13;9.70;99.90
6008;DHT22;3032;49.484;11.112;2023-03-26T19:15:40;9.70;99.90
6008;DHT22;3032;49.484;11.112;2023-03-26T19:18:07;9.60;99.90
6008;DHT22;3032;49.484;11.112;2023-03-26T19:21:01;9.60;99.90
6008;DHT22;3032;49.484;11.112;2023-03-26T19:23:38;9.70;99.90
6008;DHT22;3032;49.484;11.112;2023-03-26T19:26:07;9.70;99.90
6008;DHT22;3032;49.484;11.112;2023-03-26T19:34:00;9.90;99.90
6008;DHT22;3032;49.484;11.112;2023-03-26T19:36:28;9.90;99.90
6008;DHT22;3032;49.484;11.112;2023-03-26T19:41:35;9.50;99.90
6008;DHT22;3032;49.484;11.112;2023-03-26T19:44:10;9.20;99.90
6008;DHT22;3032;49.484;11.112;2023-03-26T19:46:38;9.00;99.90
6008;DHT22;3032;49.484;11.112;2023-03-26T19:49:27;9.00;99.90
6008;DHT22;3032;49.484;11.112;2023-03-26T19:52:12;9.20;99.90
6008;DHT22;3032;49.484;11.112;2023-03-26T19:57:31;9.10;99.90
6008;DHT22;3032;49.484;11.112;2023-03-26T19:59:58;9.10;99.90
6008;DHT22;3032;49.484;11.112;2023-03-26T20:02:24;9.10;99.90
6008;DHT22;3032;49.484;11.112;2023-03-26T20:04:51;9.00;99.90
6008;DHT22;3032;49.484;11.112;2023-03-26T20:07:19;8.80;99.90
6008;DHT22;3032;49.484;11.112;2023-03-26T20:09:46;8.90;99.90
6008;DHT22;3032;49.484;11.112;2023-03-26T20:12:12;9.10;99.90
6008;DHT22;3032;49.484;11.112;2023-03-26T20:14:39;9.30;99.90
6008;DHT22;3032;49.484;11.112;2023-03-26T20:17:11;9.40;99.90
6008;DHT22;3032;49.484;11.112;2023-03-26T20:19:37;9.10;99.90
6008;DHT22;3032;49.484;11.112;2023-03-26T20:22:03;9.10;99.90
6008;DHT22;3032;49.484;11.112;2023-03-26T20:24:30;9.20;99.90
6008;DHT22;3032;49.484;11.112;2023-03-26T20:26:56;9.40;99.90
6008;DHT22;3032;49.484;11.112;2023-03-26T20:29:22;9.50;99.90
6008;DHT22;3032;49.484;11.112;2023-03-26T20:31:48;9.50;99.90
6008;DHT22;3032;49.484;11.112;2023-03-26T20:34:16;9.60;99.90
6008;DHT22;3032;49.484;11.112;2023-03-26T20:36:41;9.70;99.90
6008;DHT22;3032;49.484;11.112;2023-03-26T20:39:07;9.70;99.90
6008;DHT22;3032;49.484;11.112;2023-03-26T20:41:34;9.60;99.90
6008;DHT22;3032;49.484;11.112;2023-03-26T20:44:13;9.40;99.90
6008;DHT22;3032;49.484;11.112;2023-03-26T20:46:40;9.60;99.90
6008;DHT22;3032;49.484;11.112;2023-03-26T20:49:07;9.60;99.90
6008;DHT22;3032;49.484;11.112;2023-03-26T20:51:36;9.30;99.90
6008;DHT22;3032;49.484;11.112;2023-03-26T20:54:20;9.10;99.90
6008;DHT22;3032;49.484;11.112;2023-03-26T20:56:46;9.00;99.90
6008;DHT22;3032;49.484;11.112;2023-03-26T20:59:16;9.00;99.90
6008;DHT22;3032;49.484;11.112;2023-03-26T21:01:44;9.00;99.90
6008;DHT22;3032;49.484;11.112;2023-03-26T21:04:12;9.10;99.90
6008;DHT22;3032;49.484;11.112;2023-03-26T21:06:38;9.00;99.90
6008;DHT22;3032;49.484;11.112;2023-03-26T21:09:04;9.00;99.90
6008;DHT22;3032;49.484;11.112;2023-03-26T21:14:45;9.30;99.90
6008;DHT22;3032;49.484;11.112;2023-03-26T21:17:17;9.50;99.90
6008;DHT22;3032;49.484;11.112;2023-03-26T21:19:44;9.50;99.90
6008;DHT22;3032;49.484;11.112;2023-03-26T21:22:34;9.50;99.90
6008;DHT22;3032;49.484;11.112;2023-03-26T21:25:09;9.40;99.90
6008;DHT22;3032;49.484;11.112;2023-03-26T21:28:10;9.40;99.90
6008;DHT22;3032;49.484;11.112;2023-03-26T21:30:39;9.70;99.90
6008;DHT22;3032;49.484;11.112;2023-03-26T21:33:04;9.70;99.90
6008;DHT22;3032;49.484;11.112;2023-03-26T21:35:30;9.60;99.90
6008;DHT22;3032;49.484;11.112;2023-03-26T21:37:56;9.60;99.90
6008;DHT22;3032;49.484;11.112;2023-03-26T21:40:22;9.70;99.90
6008;DHT22;3032;49.484;11.112;2023-03-26T21:42:50;9.70;99.90
6008;DHT22;3032;49.484;11.112;2023-03-26T21:45:17;9.60;99.90
6008;DHT22;3032;49.484;11.112;2023-03-26T21:47:43;9.70;99.90
6008;DHT22;3032;49.484;11.112;2023-03-26T21:50:12;9.80;99.90
6008;DHT22;3032;49.484;11.112;2023-03-26T21:52:38;9.70;99.90
6008;DHT22;3032;49.484;11.112;2023-03-26T21:58:20;9.60;99.90
6008;DHT22;3032;49.484;11.112;2023-03-26T22:01:11;9.60;99.90
6008;DHT22;3032;49.484;11.112;2023-03-26T22:04:01;9.30;99.90
6008;DHT22;3032;49.484;11.112;2023-03-26T22:06:45;9.20;99.90
6008;DHT22;3032;49.484;11.112;2023-03-26T22:09:14;9.40;99.90
6008;DHT22;3032;49.484;11.112;2023-03-26T22:11:39;9.50;99.90
6008;DHT22;3032;49.484;11.112;2023-03-26T22:14:06;9.40;99.90
6008;DHT22;3032;49.484;11.112;2023-03-26T22:16:32;9.40;99.90
6008;DHT22;3032;49.484;11.112;2023-03-26T22:18:58;9.50;99.90